Time;durP1;ratioP1;P1;durP2;ratioP2;P2;SDS_P1;SDS_P2;PMS_P1;PMS_P2;Temp;Humidity;BMP_temperature;BMP_pressure;BME280_temperature;BME280_humidity;BME280_pressure;Samples;Min_cycle;Max_cycle;Signal;HPM_P1;HPM_P2
2021/04/27 00:01:39;;;;;;;26.65;11.70;;;;;;;32.10;22.64;159619.17;1893429;74;21188;-72
2021/04/27 00:04:12;;;;;;;50.98;19.85;;;;;;;32.28;22.44;159668.55;1896840;74;21239;-72
2021/04/27 00:06:44;;;;;;;24.65;9.83;;;;;;;32.20;22.49;159644.48;1923462;73;21300;-72
2021/04/27 00:09:16;;;;;;;16.35;7.97;;;;;;;32.24;22.30;159657.86;1884136;76;21166;-72
2021/04/27 00:11:48;;;;;;;16.17;7.33;;;;;;;32.29;22.25;159671.17;1907976;75;21791;-71
2021/04/27 00:14:20;;;;;;;20.45;9.20;;;;;;;32.32;22.36;159679.19;1897024;75;21348;-71
2021/04/27 00:16:53;;;;;;;35.85;13.03;;;;;;;32.35;22.43;159687.20;1947049;73;21653;-73
2021/04/27 00:19:26;;;;;;;33.85;14.68;;;;;;;32.34;22.41;159684.53;1929904;74;21138;-71
2021/04/27 00:21:58;;;;;;;32.78;13.22;;;;;;;32.46;22.43;159715.25;1929869;74;21269;-72
2021/04/27 00:24:31;;;;;;;27.17;10.93;;;;;;;32.48;22.46;159720.55;1937026;74;21162;-72
2021/04/27 00:27:04;;;;;;;28.85;12.50;;;;;;;32.52;22.51;159732.56;1893454;75;21789;-72
2021/04/27 00:29:36;;;;;;;29.18;12.45;;;;;;;32.52;22.50;159732.56;1893505;76;21382;-72
2021/04/27 00:32:09;;;;;;;20.23;9.63;;;;;;;32.59;22.59;159749.91;1893572;75;21161;-72
2021/04/27 00:34:41;;;;;;;17.40;7.47;;;;;;;32.58;22.43;159747.28;1893610;76;21311;-72
2021/04/27 00:37:13;;;;;;;11.75;5.72;;;;;;;32.52;22.28;159732.56;1886282;75;21296;-72
2021/04/27 00:39:45;;;;;;;10.03;5.40;;;;;;;32.34;22.21;159683.22;1897146;75;21122;-72
2021/04/27 00:42:18;;;;;;;12.43;4.80;;;;;;;32.16;22.24;159635.16;1899515;75;21277;-72
2021/04/27 00:44:50;;;;;;;9.40;4.90;;;;;;;32.09;22.26;159615.14;1888509;75;21150;-72
2021/04/27 00:47:23;;;;;;;9.75;4.40;;;;;;;31.92;22.34;159571.06;1898164;75;21333;-72
2021/04/27 00:49:56;;;;;;;10.10;4.75;;;;;;;31.87;22.41;159556.39;1898518;75;21185;-72
2021/04/27 00:52:28;;;;;;;10.08;4.70;;;;;;;31.76;22.50;159528.41;1882224;75;21818;-72
2021/04/27 00:55:01;;;;;;;11.08;4.75;;;;;;;31.81;22.54;159540.41;1894331;75;21316;-73
2021/04/27 00:57:34;;;;;;;11.68;4.33;;;;;;;31.69;22.58;159508.39;1929289;74;21847;-73
2021/04/27 01:00:09;;;;;;;9.53;4.55;;;;;;;31.65;22.66;159499.06;1917719;74;21821;-72
2021/04/27 01:02:41;;;;;;;7.78;4.50;;;;;;;31.69;22.62;159508.39;1886124;76;21280;-70
2021/04/27 01:05:22;;;;;;;10.25;4.90;;;;;;;31.70;22.60;159511.06;1880159;75;21277;-72
2021/04/27 01:08:23;;;;;;;9.35;5.22;;;;;;;31.60;22.64;159485.70;1854270;77;21177;-72
2021/04/27 01:11:29;;;;;;;9.03;5.60;;;;;;;31.52;22.56;159462.97;1888829;75;21804;-71
2021/04/27 01:14:18;;;;;;;10.43;5.33;;;;;;;31.60;22.49;159484.34;1854377;77;21304;-72
2021/04/27 01:17:01;;;;;;;10.53;5.40;;;;;;;31.42;22.69;159437.61;1873453;76;21309;-72
2021/04/27 01:20:23;;;;;;;13.30;5.50;;;;;;;31.34;22.70;159414.98;1883336;75;21143;-72
2021/04/27 01:23:24;;;;;;;10.32;5.60;;;;;;;31.22;22.77;159381.63;1886825;76;21658;-71
2021/04/27 01:26:23;;;;;;;9.50;4.75;;;;;;;31.24;22.93;159388.33;1905852;73;21304;-72
2021/04/27 01:28:56;;;;;;;9.83;4.40;;;;;;;31.22;22.98;159382.98;1871354;73;21296;-72
2021/04/27 01:31:29;;;;;;;10.45;4.97;;;;;;;31.26;23.02;159393.61;1895642;75;21772;-72
2021/04/27 01:34:02;;;;;;;12.58;5.40;;;;;;;31.21;23.04;159378.94;1914661;75;21154;-72
2021/04/27 01:36:36;;;;;;;9.33;4.45;;;;;;;31.26;23.07;159392.31;1916052;73;21316;-72
2021/04/27 01:39:09;;;;;;;12.63;5.50;;;;;;;31.18;23.14;159370.98;1913358;75;21270;-72
2021/04/27 01:41:42;;;;;;;11.10;5.80;;;;;;;31.13;23.20;159359.00;1909753;75;21159;-71
2021/04/27 01:44:14;;;;;;;9.85;5.67;;;;;;;31.18;23.20;159370.98;1892447;75;21170;-72
2021/04/27 01:46:46;;;;;;;14.15;5.80;;;;;;;31.13;23.12;159359.00;1931642;73;21262;-72
2021/04/27 01:49:19;;;;;;;11.63;5.45;;;;;;;31.08;23.19;159345.64;1879837;76;21774;-72
2021/04/27 01:51:53;;;;;;;10.28;5.72;;;;;;;31.05;23.10;159337.63;1914654;74;21170;-72
2021/04/27 01:54:30;;;;;;;11.40;5.12;;;;;;;30.91;23.13;159298.92;1918395;75;21277;-72
2021/04/27 01:57:03;;;;;;;11.12;6.08;;;;;;;30.84;23.19;159280.28;1919530;74;21271;-72
2021/04/27 01:59:35;;;;;;;10.25;5.12;;;;;;;30.70;23.31;159244.25;1887095;74;21323;-72
2021/04/27 02:02:10;;;;;;;8.70;4.42;;;;;;;30.66;23.33;159233.63;1888906;76;22466;-71
2021/04/27 02:04:43;;;;;;;8.98;4.83;;;;;;;30.55;23.39;159204.31;1888532;76;21299;-72
2021/04/27 02:07:23;;;;;;;11.40;5.08;;;;;;;30.49;23.42;159186.98;1869211;76;21674;-72
2021/04/27 02:09:55;;;;;;;14.10;5.05;;;;;;;30.43;23.46;159170.91;1863901;76;21182;-71
2021/04/27 02:12:30;;;;;;;9.68;4.37;;;;;;;30.27;23.56;159126.94;1894136;76;21281;-71
2021/04/27 02:15:02;;;;;;;8.58;4.80;;;;;;;30.37;23.49;159156.25;1894912;75;21301;-72
2021/04/27 02:17:48;;;;;;;9.38;4.55;;;;;;;30.39;23.54;159161.59;1890821;76;21272;-71
2021/04/27 02:20:26;;;;;;;8.65;4.30;;;;;;;30.37;23.61;159156.25;1867795;75;21185;-71
2021/04/27 02:23:02;;;;;;;11.28;4.50;;;;;;;30.40;23.61;159164.27;1886747;76;21603;-71
2021/04/27 02:25:37;;;;;;;9.73;4.12;;;;;;;30.23;23.74;159116.27;1887183;76;21700;-72
2021/04/27 02:28:10;;;;;;;6.75;3.90;;;;;;;30.27;23.74;159128.25;1875685;75;21403;-72
2021/04/27 02:30:42;;;;;;;9.80;3.90;;;;;;;30.33;23.71;159144.27;1879507;76;21327;-72
2021/04/27 02:33:16;;;;;;;8.10;3.77;;;;;;;30.27;23.75;159126.94;1910807;75;21268;-72
2021/04/27 02:35:51;;;;;;;9.30;4.00;;;;;;;30.24;23.78;159118.94;1926028;74;21186;-71
2021/04/27 02:38:27;;;;;;;7.55;3.50;;;;;;;30.28;23.79;159129.61;1918540;74;21163;-71
2021/04/27 02:41:01;;;;;;;9.30;3.87;;;;;;;30.39;23.80;159161.59;1912387;75;21285;-71
2021/04/27 02:43:40;;;;;;;8.95;3.62;;;;;;;30.44;23.78;159174.89;1920388;75;21340;-71
2021/04/27 02:46:12;;;;;;;6.70;3.90;;;;;;;30.48;23.81;159184.25;1918424;74;21143;-72
2021/04/27 02:48:52;;;;;;;8.75;3.52;;;;;;;30.45;23.80;159176.25;1891040;74;21300;-73
2021/04/27 02:51:27;;;;;;;6.85;3.47;;;;;;;30.42;23.92;159168.25;1923370;74;21295;-71
2021/04/27 02:54:01;;;;;;;7.83;4.00;;;;;;;30.37;23.90;159156.25;1908150;74;21250;-72
2021/04/27 02:56:34;;;;;;;6.03;3.17;;;;;;;30.37;23.94;159154.94;1913043;73;21317;-71
2021/04/27 02:59:07;;;;;;;8.60;3.58;;;;;;;30.28;23.95;159130.92;1909109;75;21214;-72
2021/04/27 03:01:40;;;;;;;5.08;3.05;;;;;;;30.10;24.02;159081.63;1849943;76;21170;-72
2021/04/27 03:04:14;;;;;;;4.78;3.00;;;;;;;29.99;24.07;159052.31;1898009;73;21202;-72
2021/04/27 03:06:54;;;;;;;5.50;3.33;;;;;;;29.93;24.08;159036.30;1831305;75;21337;-72
2021/04/27 03:09:29;;;;;;;6.85;3.62;;;;;;;29.90;24.05;159029.66;1914919;75;21173;-72
2021/04/27 03:12:02;;;;;;;5.42;3.08;;;;;;;29.93;24.09;159037.61;1897594;74;21143;-72
2021/04/27 03:14:37;;;;;;;6.28;3.60;;;;;;;30.03;24.12;159062.98;1896446;74;21135;-71
2021/04/27 03:17:09;;;;;;;8.58;3.58;;;;;;;30.05;24.20;159068.33;1928760;74;21134;-72
2021/04/27 03:19:43;;;;;;;7.50;3.45;;;;;;;29.90;24.33;159029.66;1855314;76;21272;-73
2021/04/27 03:22:17;;;;;;;6.10;3.62;;;;;;;29.92;24.26;159033.63;1907166;74;21278;-71
2021/04/27 03:24:49;;;;;;;6.67;3.40;;;;;;;29.84;24.30;159013.64;1899718;74;21360;-71
2021/04/27 03:27:22;;;;;;;5.83;3.20;;;;;;;29.80;24.35;159001.66;1914718;75;21831;-71
2021/04/27 03:30:13;;;;;;;7.45;3.00;;;;;;;29.91;24.39;159030.97;1899578;73;21111;-73
2021/04/27 03:32:45;;;;;;;6.78;3.45;;;;;;;29.92;24.45;159033.63;1895986;75;21307;-73
2021/04/27 03:35:18;;;;;;;7.28;3.15;;;;;;;29.96;24.51;159044.36;1894884;75;21364;-73
2021/04/27 03:37:51;;;;;;;6.33;3.60;;;;;;;30.10;24.46;159082.97;1888299;75;21150;-73
2021/04/27 03:40:24;;;;;;;5.92;3.30;;;;;;;30.07;24.50;159074.97;1894315;75;21689;-73
2021/04/27 03:42:56;;;;;;;7.83;3.20;;;;;;;30.01;24.55;159057.66;1883881;76;21323;-72
2021/04/27 03:45:36;;;;;;;5.12;3.30;;;;;;;30.01;24.68;159057.66;1923228;74;21285;-76
2021/04/27 03:48:17;;;;;;;8.10;3.17;;;;;;;30.11;24.75;159085.66;1899661;74;21138;-72
2021/04/27 03:50:54;;;;;;;5.05;3.33;;;;;;;30.08;24.89;159076.33;1890793;74;21276;-74
2021/04/27 03:53:28;;;;;;;6.08;3.55;;;;;;;30.23;24.83;159116.27;1905433;74;22042;-74
2021/04/27 03:56:01;;;;;;;6.85;3.35;;;;;;;30.28;24.82;159129.61;1898983;73;21194;-74
2021/04/27 03:58:33;;;;;;;16.48;6.08;;;;;;;30.41;24.72;159165.56;1894501;73;21184;-79
2021/04/27 04:01:06;;;;;;;11.95;5.00;;;;;;;30.49;24.60;159186.98;1887161;74;21248;-78
2021/04/27 04:03:41;;;;;;;12.85;4.90;;;;;;;30.43;24.67;159172.27;1889424;74;21197;-74
2021/04/27 04:06:15;;;;;;;6.40;4.10;;;;;;;30.61;24.63;159218.97;1887330;74;21383;-78
2021/04/27 04:08:59;;;;;;;6.67;3.47;;;;;;;30.77;24.53;159262.95;1862733;75;21854;-79
2021/04/27 04:11:34;;;;;;;7.92;3.40;;;;;;;30.92;24.45;159302.91;1908036;73;21169;-77
2021/04/27 04:14:08;;;;;;;6.92;3.30;;;;;;;30.93;24.48;159305.58;1907803;73;21640;-72
2021/04/27 04:16:42;;;;;;;6.62;3.72;;;;;;;30.99;24.52;159320.23;1909516;74;21331;-72
2021/04/27 04:19:15;;;;;;;8.08;3.62;;;;;;;31.10;24.38;159350.98;1908695;74;21130;-74
2021/04/27 04:21:49;;;;;;;7.90;3.87;;;;;;;31.17;24.32;159369.62;1886829;74;21202;-72
2021/04/27 04:24:22;;;;;;;5.78;3.15;;;;;;;31.14;24.29;159360.30;1928417;73;21493;-71
2021/04/27 04:26:54;;;;;;;7.08;3.75;;;;;;;31.19;24.21;159373.66;1932923;74;21268;-71
2021/04/27 04:29:28;;;;;;;5.60;3.35;;;;;;;31.30;24.23;159405.66;1901391;74;21846;-71
2021/04/27 04:32:05;;;;;;;4.37;3.00;;;;;;;31.32;24.18;159409.64;1901652;74;21773;-70
2021/04/27 04:34:46;;;;;;;6.78;3.30;;;;;;;31.46;24.17;159448.30;1852656;73;21268;-69
2021/04/27 04:37:20;;;;;;;7.10;3.50;;;;;;;31.58;24.14;159479.06;1821757;74;21374;-71
2021/04/27 04:40:12;;;;;;;7.70;4.53;;;;;;;31.54;24.08;159468.31;1913474;74;21304;-70
2021/04/27 04:43:02;;;;;;;5.53;3.72;;;;;;;31.55;23.97;159472.30;1923001;73;21839;-68
2021/04/27 04:45:39;;;;;;;7.05;3.65;;;;;;;31.47;23.97;159449.66;1893177;75;21664;-69
2021/04/27 04:48:18;;;;;;;6.22;3.95;;;;;;;31.61;24.00;159487.02;1829458;77;21343;-73
2021/04/27 04:50:53;;;;;;;5.90;2.90;;;;;;;33.03;22.95;159867.47;1901039;73;21910;-76
2021/04/27 04:53:52;;;;;;;7.03;3.58;;;;;;;33.12;22.87;159891.55;1914551;73;21282;-73
2021/04/27 04:56:30;;;;;;;9.33;3.40;;;;;;;33.09;22.89;159883.47;1892008;73;21845;-78
2021/04/27 04:59:15;;;;;;;5.78;3.87;;;;;;;32.97;22.86;159851.42;1889447;73;21267;-75
2021/04/27 05:01:50;;;;;;;6.37;3.30;;;;;;;33.26;22.88;159931.63;1893454;74;22005;-73
2021/04/27 05:04:31;;;;;;;6.03;3.10;;;;;;;33.26;22.72;159930.25;1853346;73;21142;-71
2021/04/27 05:07:40;;;;;;;6.35;3.60;;;;;;;33.38;22.59;159963.67;1892781;74;21229;-74
2021/04/27 05:10:09;;;;;;;5.53;3.02;;;;;;;33.34;22.70;159951.61;1840499;75;21328;-72
2021/04/27 05:12:44;;;;;;;6.17;3.75;;;;;;;33.40;22.66;159968.97;1879791;75;21189;-74
2021/04/27 05:15:18;;;;;;;8.25;3.22;;;;;;;33.59;22.65;160018.39;1883351;74;21344;-72
2021/04/27 05:17:50;;;;;;;5.83;3.15;;;;;;;33.77;22.58;160066.56;1885416;74;21336;-71
2021/04/27 05:20:23;;;;;;;4.33;2.98;;;;;;;33.76;22.41;160065.19;1856149;76;21823;-71
2021/04/27 05:22:55;;;;;;;6.17;3.00;;;;;;;33.85;22.39;160087.91;1899427;74;21331;-72
2021/04/27 05:25:30;;;;;;;4.60;2.95;;;;;;;33.93;22.40;160110.63;1893831;73;21368;-75
2021/04/27 05:28:04;;;;;;;6.17;3.10;;;;;;;34.02;22.34;160133.36;1886560;74;21371;-71
2021/04/27 05:30:37;;;;;;;4.83;2.77;;;;;;;33.98;22.35;160123.97;1889679;74;21232;-72
2021/04/27 05:33:09;;;;;;;4.87;2.95;;;;;;;33.94;22.16;160113.31;1889161;74;21213;-72
2021/04/27 05:35:42;;;;;;;3.58;2.77;;;;;;;34.09;22.25;160152.09;1890338;74;21150;-74
2021/04/27 05:38:14;;;;;;;4.70;3.10;;;;;;;34.18;22.22;160177.50;1887448;74;21296;-72
2021/04/27 05:40:47;;;;;;;4.72;3.05;;;;;;;34.26;22.26;160198.86;1855492;76;21292;-73
2021/04/27 05:43:19;;;;;;;5.78;3.20;;;;;;;34.14;22.00;160168.09;1854888;76;21150;-72
2021/04/27 05:45:51;;;;;;;7.90;3.37;;;;;;;34.38;22.16;160232.25;1893536;74;21360;-74
2021/04/27 05:48:24;;;;;;;6.70;3.22;;;;;;;34.38;22.04;160232.25;1888369;74;21357;-72
2021/04/27 05:50:56;;;;;;;5.15;3.17;;;;;;;34.20;21.88;160184.16;1868926;76;21161;-71
2021/04/27 05:53:28;;;;;;;5.87;2.58;;;;;;;34.13;21.90;160162.81;1893428;74;21276;-75
2021/04/27 05:56:01;;;;;;;6.58;3.55;;;;;;;34.14;21.95;160168.09;1864510;76;21320;-74
2021/04/27 05:58:34;;;;;;;5.37;2.92;;;;;;;34.01;22.13;160130.69;1903579;74;21394;-74
2021/04/27 06:01:06;;;;;;;4.03;2.92;;;;;;;34.20;21.88;160184.16;1905330;73;21787;-73
2021/04/27 06:03:39;;;;;;;5.62;2.90;;;;;;;34.18;21.98;160177.50;1888869;74;21364;-78
2021/04/27 06:06:12;;;;;;;7.92;3.40;;;;;;;34.20;21.79;160184.16;1883753;76;21621;-72
2021/04/27 06:08:45;;;;;;;4.05;2.40;;;;;;;34.14;21.80;160165.48;1902703;74;21163;-72
2021/04/27 06:11:17;;;;;;;4.15;2.47;;;;;;;34.28;21.88;160205.53;1920432;73;21281;-73
2021/04/27 06:13:49;;;;;;;4.37;2.27;;;;;;;34.32;21.49;160214.88;1893524;76;21244;-72
2021/04/27 06:16:22;;;;;;;5.10;2.80;;;;;;;34.30;21.27;160209.56;1909000;74;21159;-72
2021/04/27 06:18:55;;;;;;;8.58;2.30;;;;;;;34.40;21.52;160236.28;1895018;75;21154;-72
2021/04/27 06:21:29;;;;;;;7.55;3.08;;;;;;;34.31;21.28;160212.25;1879369;74;21198;-72
2021/04/27 06:24:01;;;;;;;6.17;2.40;;;;;;;34.30;21.21;160210.88;1887940;76;21446;-72
2021/04/27 06:26:33;;;;;;;3.87;2.50;;;;;;;34.40;21.22;160236.28;1899797;73;21236;-72
2021/04/27 06:29:06;;;;;;;4.08;2.60;;;;;;;34.35;21.24;160224.27;1894074;75;21284;-72
2021/04/27 06:31:38;;;;;;;5.67;2.33;;;;;;;34.32;20.91;160214.88;1864612;76;21371;-72
2021/04/27 06:34:10;;;;;;;6.25;2.50;;;;;;;34.24;20.90;160194.87;1948115;73;21276;-72
2021/04/27 06:36:43;;;;;;;3.72;2.12;;;;;;;34.12;21.00;160160.13;1883911;75;21832;-72
2021/04/27 06:39:16;;;;;;;7.05;2.52;;;;;;;34.41;21.19;160240.28;1884356;76;21185;-72
2021/04/27 06:41:48;;;;;;;5.67;2.40;;;;;;;34.68;20.57;160312.52;1926338;73;21799;-72
2021/04/27 06:44:20;;;;;;;2.83;2.17;;;;;;;34.56;20.71;160279.03;1883128;75;21763;-72
2021/04/27 06:46:53;;;;;;;4.22;2.40;;;;;;;34.59;20.76;160288.47;1880902;75;21308;-72
2021/04/27 06:49:27;;;;;;;4.37;2.50;;;;;;;34.77;20.73;160336.56;1925036;73;21158;-72
2021/04/27 06:51:59;;;;;;;3.37;2.02;;;;;;;34.91;20.54;160374.02;1885213;76;21236;-72
2021/04/27 06:54:31;;;;;;;3.47;2.08;;;;;;;35.05;20.21;160411.50;1867385;75;21243;-73
2021/04/27 06:57:03;;;;;;;4.70;2.33;;;;;;;35.09;19.91;160422.17;1885056;75;21676;-72
2021/04/27 06:59:37;;;;;;;4.17;2.27;;;;;;;35.18;19.90;160447.59;1892763;76;21354;-72
2021/04/27 07:02:10;;;;;;;3.72;2.15;;;;;;;35.33;20.01;160487.72;1955126;73;21264;-72
2021/04/27 07:04:44;;;;;;;3.05;1.95;;;;;;;35.44;19.68;160515.78;1954575;73;21166;-72
2021/04/27 07:07:17;;;;;;;3.25;2.20;;;;;;;35.62;19.53;160564.00;1858595;77;21323;-72
2021/04/27 07:09:49;;;;;;;4.20;2.17;;;;;;;35.59;19.49;160555.97;1941318;73;21253;-72
2021/04/27 07:12:22;;;;;;;3.02;1.80;;;;;;;35.60;19.10;160558.64;1870410;76;21178;-72
2021/04/27 07:14:54;;;;;;;3.22;2.17;;;;;;;35.71;19.20;160589.38;1879859;76;21348;-72
2021/04/27 07:17:27;;;;;;;4.22;1.77;;;;;;;35.91;19.15;160641.56;1888709;76;21182;-72
2021/04/27 07:20:00;;;;;;;3.45;1.42;;;;;;;36.01;18.73;160669.72;1884839;76;21336;-72
2021/04/27 07:22:32;;;;;;;3.58;1.72;;;;;;;36.17;18.25;160713.87;1892671;76;21336;-72
2021/04/27 07:25:05;;;;;;;2.70;1.32;;;;;;;36.04;18.23;160676.41;1887409;76;21808;-72
2021/04/27 07:27:39;;;;;;;1.15;1.00;;;;;;;36.19;18.52;160717.86;1884382;76;21292;-72
2021/04/27 07:30:13;;;;;;;1.92;1.52;;;;;;;36.35;17.97;160762.02;1873537;76;21201;-72
2021/04/27 07:32:46;;;;;;;2.08;1.20;;;;;;;36.53;18.14;160810.28;1893898;76;21843;-72
2021/04/27 07:35:19;;;;;;;3.25;1.90;;;;;;;36.68;18.12;160849.08;1869097;76;21150;-72
2021/04/27 07:37:52;;;;;;;2.15;1.47;;;;;;;36.77;18.24;160874.52;1894709;76;21198;-72
2021/04/27 07:40:31;;;;;;;4.12;1.67;;;;;;;36.26;17.63;160737.94;1883392;76;21323;-72
2021/04/27 07:43:06;;;;;;;2.80;1.80;;;;;;;36.59;17.97;160826.31;1884798;76;21703;-72
2021/04/27 07:45:40;;;;;;;2.27;1.85;;;;;;;36.64;18.19;160838.34;1909561;74;21277;-73
2021/04/27 07:48:13;;;;;;;2.30;1.42;;;;;;;36.80;18.11;160882.56;1942063;74;21282;-72
2021/04/27 07:50:45;;;;;;;1.82;1.40;;;;;;;36.90;18.32;160909.39;1934309;74;21292;-72
2021/04/27 07:53:18;;;;;;;2.70;1.50;;;;;;;36.75;18.27;160869.16;1866023;77;21159;-72
2021/04/27 07:55:50;;;;;;;3.45;1.80;;;;;;;36.53;17.69;160810.28;1923008;74;21272;-72
2021/04/27 07:58:22;;;;;;;3.62;1.70;;;;;;;36.47;17.62;160794.19;1884514;76;21340;-72
2021/04/27 08:00:54;;;;;;;4.03;2.08;;;;;;;36.54;18.16;160811.59;1922176;73;21269;-72
2021/04/27 08:03:27;;;;;;;4.62;1.55;;;;;;;36.69;18.27;160853.08;1869043;77;21281;-72
2021/04/27 08:06:00;;;;;;;2.20;1.62;;;;;;;36.89;17.89;160905.28;1889827;75;21391;-72
2021/04/27 08:08:33;;;;;;;2.45;1.47;;;;;;;37.09;18.03;160961.56;1861624;76;21875;-72
2021/04/27 08:11:05;;;;;;;3.80;1.30;;;;;;;37.35;17.54;161031.25;1894264;76;21272;-72
2021/04/27 08:13:37;;;;;;;5.67;1.27;;;;;;;37.41;17.11;161045.97;1891325;75;21309;-72
2021/04/27 08:16:10;;;;;;;1.60;1.30;;;;;;;37.38;16.95;161037.97;1855433;76;21403;-72
2021/04/27 08:18:42;;;;;;;1.80;1.20;;;;;;;37.47;17.44;161063.38;1868424;76;21280;-72
2021/04/27 08:21:15;;;;;;;4.50;1.40;;;;;;;37.79;17.33;161147.81;1884394;75;21221;-72
2021/04/27 08:23:47;;;;;;;3.05;2.25;;;;;;;37.71;17.05;161126.34;1904726;75;21307;-73
2021/04/27 08:26:19;;;;;;;2.58;1.65;;;;;;;37.79;17.14;161147.81;1877010;75;21269;-73
2021/04/27 08:28:52;;;;;;;2.47;1.45;;;;;;;37.39;16.95;161040.59;1881026;76;21146;-72
2021/04/27 08:31:27;;;;;;;3.60;1.40;;;;;;;37.56;16.92;161086.16;1876459;76;21332;-72
2021/04/27 08:33:59;;;;;;;3.72;1.40;;;;;;;37.65;16.57;161110.25;1874985;76;21182;-72
2021/04/27 08:36:33;;;;;;;1.82;1.27;;;;;;;37.94;16.66;161189.34;1845455;76;21205;-72
2021/04/27 08:39:05;;;;;;;2.92;1.50;;;;;;;38.08;16.70;161226.86;1879404;76;21197;-72
2021/04/27 08:41:37;;;;;;;4.92;1.70;;;;;;;38.14;16.77;161244.28;1853843;77;21791;-72
2021/04/27 08:44:10;;;;;;;2.52;1.57;;;;;;;38.29;16.77;161283.17;1853850;77;21697;-72
2021/04/27 08:46:42;;;;;;;5.17;1.65;;;;;;;38.23;16.68;161268.44;1851690;76;21847;-72
2021/04/27 08:49:15;;;;;;;2.52;1.40;;;;;;;38.32;17.06;161291.22;1854742;76;21201;-72
2021/04/27 08:51:47;;;;;;;4.53;1.40;;;;;;;38.52;16.45;161344.81;1884450;76;21154;-72
2021/04/27 08:54:21;;;;;;;2.17;1.45;;;;;;;38.51;16.39;161342.12;1872880;76;21135;-72
2021/04/27 08:56:53;;;;;;;2.90;1.65;;;;;;;39.04;16.67;161485.59;1884958;76;21201;-72
2021/04/27 08:59:26;;;;;;;3.47;1.30;;;;;;;40.15;16.59;161784.80;1857821;76;21349;-73
2021/04/27 09:01:58;;;;;;;4.33;2.08;;;;;;;41.28;15.73;162089.58;1885014;76;21151;-72
2021/04/27 09:04:53;;;;;;;1.85;1.17;;;;;;;41.82;15.46;162236.00;1874655;76;21666;-73
2021/04/27 09:07:23;;;;;;;3.55;1.25;;;;;;;42.08;15.72;162307.20;1863456;76;21331;-73
2021/04/27 09:09:59;;;;;;;4.83;1.37;;;;;;;41.95;15.29;162272.28;1878361;76;21312;-73
2021/04/27 09:12:32;;;;;;;3.45;1.30;;;;;;;41.96;15.60;162274.98;1853905;77;21387;-73
2021/04/27 09:15:07;;;;;;;2.37;1.25;;;;;;;41.91;14.89;162261.47;1868297;76;21407;-73
2021/04/27 09:17:39;;;;;;;2.72;1.40;;;;;;;41.97;15.39;162277.67;1880976;76;21204;-73
2021/04/27 09:20:12;;;;;;;3.87;1.55;;;;;;;41.85;15.23;162242.69;1807904;77;21139;-73
2021/04/27 09:22:45;;;;;;;1.85;1.20;;;;;;;41.82;15.35;162234.63;1894887;76;21272;-73
2021/04/27 09:25:23;;;;;;;3.65;1.40;;;;;;;41.69;15.01;162201.08;1894984;76;21297;-73
2021/04/27 09:27:55;;;;;;;2.30;1.30;;;;;;;41.77;15.24;162222.55;1841447;76;21608;-73
2021/04/27 09:30:30;;;;;;;2.83;1.10;;;;;;;41.88;14.89;162253.45;1921088;74;21820;-72
2021/04/27 09:33:06;;;;;;;2.00;1.30;;;;;;;41.95;14.77;162272.28;1921047;74;21278;-73
2021/04/27 09:35:44;;;;;;;2.67;1.57;;;;;;;42.07;14.69;162303.20;1926241;74;21289;-73
2021/04/27 09:38:27;;;;;;;2.12;1.27;;;;;;;43.01;14.86;162557.19;1933275;74;21284;-73
2021/04/27 09:41:02;;;;;;;1.45;1.30;;;;;;;44.77;14.60;163033.42;1904420;74;21297;-74
2021/04/27 09:43:50;;;;;;;2.25;1.40;;;;;;;47.20;14.15;163690.70;1844513;76;21335;-73
2021/04/27 09:46:20;;;;;;;2.10;1.40;;;;;;;48.04;13.10;163919.81;1927689;74;21332;-74
2021/04/27 09:49:03;;;;;;;3.27;1.40;;;;;;;47.68;13.21;163821.42;1886084;73;21332;-73
2021/04/27 09:51:35;;;;;;;3.95;1.25;;;;;;;47.65;13.04;163813.31;1878901;75;21292;-73
2021/04/27 09:54:14;;;;;;;2.00;1.25;;;;;;;47.79;12.96;163852.44;1879087;76;21178;-73
2021/04/27 09:56:52;;;;;;;4.10;1.07;;;;;;;46.99;12.53;163634.09;1879694;73;21328;-74
2021/04/27 09:59:31;;;;;;;1.60;1.40;;;;;;;46.42;12.73;163480.41;1850428;76;21312;-74
2021/04/27 10:02:09;;;;;;;2.87;1.47;;;;;;;46.89;12.68;163608.48;1892626;76;21382;-73
2021/04/27 10:04:41;;;;;;;2.55;1.45;;;;;;;47.28;12.53;163713.56;1865978;76;21163;-74
2021/04/27 10:07:14;;;;;;;3.20;1.40;;;;;;;46.27;12.73;163440.06;1915906;74;21654;-73
2021/04/27 10:09:47;;;;;;;1.52;1.25;;;;;;;44.84;13.38;163053.61;1859173;75;21209;-73
2021/04/27 10:12:20;;;;;;;1.67;1.37;;;;;;;44.02;13.75;162831.56;1870550;76;21890;-73
2021/04/27 10:14:52;;;;;;;3.80;1.67;;;;;;;43.29;13.78;162632.53;1895101;76;21755;-73
2021/04/27 10:17:25;;;;;;;2.40;1.32;;;;;;;42.58;14.09;162441.61;1887983;75;21157;-73
2021/04/27 10:19:58;;;;;;;2.52;1.50;;;;;;;42.53;13.92;162428.16;1882221;76;21874;-73
2021/04/27 10:22:31;;;;;;;2.12;1.40;;;;;;;43.93;14.07;162806.00;1890969;76;21336;-73
2021/04/27 10:25:04;;;;;;;2.50;1.77;;;;;;;44.71;13.51;163015.94;1884428;76;21209;-73
2021/04/27 10:27:36;;;;;;;2.35;1.10;;;;;;;44.84;13.37;163053.61;1849116;76;21154;-73
2021/04/27 10:30:25;;;;;;;1.70;1.40;;;;;;;45.33;13.70;163185.47;1896954;74;21315;-74
2021/04/27 10:33:09;;;;;;;1.27;1.10;;;;;;;45.67;13.28;163275.72;1885342;75;21367;-73
2021/04/27 10:35:46;;;;;;;1.47;1.10;;;;;;;45.15;13.30;163137.06;1926525;74;21677;-73
2021/04/27 10:38:18;;;;;;;1.65;1.12;;;;;;;43.99;13.38;162823.48;1858136;77;21289;-73
2021/04/27 10:41:03;;;;;;;1.87;0.98;;;;;;;42.94;13.70;162538.41;1932579;74;21296;-73
2021/04/27 10:43:39;;;;;;;2.08;1.10;;;;;;;42.15;13.88;162326.00;1920334;75;21355;-73
2021/04/27 10:46:19;;;;;;;0.95;0.80;;;;;;;41.74;14.10;162214.47;1914194;75;21205;-73
2021/04/27 10:48:51;;;;;;;1.62;1.02;;;;;;;41.24;14.13;162080.20;1873070;75;21162;-75
2021/04/27 10:51:28;;;;;;;1.82;1.20;;;;;;;40.98;14.18;162010.34;1865524;76;21277;-72
2021/04/27 10:54:19;;;;;;;1.22;1.00;;;;;;;40.86;14.16;161976.75;1894695;76;21296;-73
2021/04/27 10:56:58;;;;;;;1.75;1.20;;;;;;;40.80;14.46;161960.67;1868909;77;21299;-73
2021/04/27 10:59:34;;;;;;;2.22;1.10;;;;;;;40.67;14.24;161925.72;1890562;76;21327;-73
2021/04/27 11:02:16;;;;;;;1.45;1.22;;;;;;;40.55;14.54;161893.52;1870449;76;21334;-73
2021/04/27 11:04:52;;;;;;;2.60;1.20;;;;;;;40.63;14.67;161914.97;1886813;76;21304;-73
2021/04/27 11:07:30;;;;;;;1.57;1.12;;;;;;;40.80;14.60;161959.36;1860362;77;21686;-73
2021/04/27 11:10:07;;;;;;;4.10;1.20;;;;;;;41.16;14.25;162057.38;1863501;76;21343;-73
2021/04/27 11:12:46;;;;;;;1.70;1.20;;;;;;;41.41;14.50;162124.50;1883659;76;21288;-73
2021/04/27 11:15:25;;;;;;;2.85;1.20;;;;;;;41.45;14.29;162135.20;1895165;76;21339;-74
2021/04/27 11:18:19;;;;;;;1.70;1.00;;;;;;;40.98;14.41;162010.34;1900436;75;21307;-73
2021/04/27 11:21:12;;;;;;;3.42;1.10;;;;;;;40.83;14.47;161968.73;1901779;75;21352;-73
2021/04/27 11:23:54;;;;;;;1.55;1.25;;;;;;;40.82;14.53;161966.05;1905249;75;21335;-73
2021/04/27 11:26:37;;;;;;;2.50;1.52;;;;;;;40.86;14.89;161976.75;1904721;75;21838;-72
2021/04/27 11:29:16;;;;;;;3.33;1.30;;;;;;;41.07;15.05;162034.48;1884147;76;21308;-72
2021/04/27 11:32:09;;;;;;;1.70;1.15;;;;;;;41.16;14.70;162057.38;1890884;75;21260;-72
2021/04/27 11:34:54;;;;;;;1.40;1.12;;;;;;;41.15;14.65;162056.00;1890511;76;21335;-73
2021/04/27 11:37:34;;;;;;;2.10;1.20;;;;;;;41.01;14.87;162017.03;1895021;75;21141;-72
2021/04/27 11:40:30;;;;;;;1.22;1.02;;;;;;;41.00;14.88;162014.34;1893712;75;21221;-72
2021/04/27 11:43:08;;;;;;;1.27;0.80;;;;;;;40.49;14.50;161877.44;1890372;76;21166;-72
2021/04/27 11:45:46;;;;;;;0.88;0.80;;;;;;;40.06;14.66;161760.66;1890628;76;21331;-72
2021/04/27 11:48:20;;;;;;;1.27;0.93;;;;;;;39.96;15.03;161735.16;1890333;76;21285;-72
2021/04/27 11:50:52;;;;;;;1.20;1.00;;;;;;;40.10;15.09;161772.72;1890587;75;21193;-72
2021/04/27 11:53:26;;;;;;;3.05;1.22;;;;;;;40.18;15.10;161794.17;1890359;75;21146;-72
2021/04/27 11:55:59;;;;;;;1.42;1.00;;;;;;;40.28;15.26;161819.69;1883612;75;21140;-72
2021/04/27 11:58:33;;;;;;;2.17;1.30;;;;;;;40.52;15.25;161884.13;1869850;77;21840;-73
2021/04/27 12:01:07;;;;;;;1.52;1.00;;;;;;;40.62;15.39;161912.34;1889136;75;21815;-73
2021/04/27 12:03:42;;;;;;;3.25;1.25;;;;;;;40.85;15.20;161974.11;1880523;76;21304;-72